Time;durP1;ratioP1;P1;durP2;ratioP2;P2;SDS_P1;SDS_P2;PMS_P1;PMS_P2;Temp;Humidity;BMP_temperature;BMP_pressure;BME280_temperature;BME280_humidity;BME280_pressure;Samples;Min_cycle;Max_cycle;Signal;HPM_P1;HPM_P2
2023/12/20 00:00:15;;;;;;;1999.90;999.90;;;7.60;99.90;;;;;;5051962;28;20417;-74
2023/12/20 00:02:46;;;;;;;1999.90;999.90;;;7.60;99.90;;;;;;5052672;28;20953;-75
2023/12/20 00:05:13;;;;;;;1999.90;999.90;;;7.60;99.90;;;;;;5050356;28;20405;-74
2023/12/20 00:07:40;;;;;;;1999.90;999.90;;;7.70;99.90;;;;;;5052944;28;20436;-73
2023/12/20 00:10:09;;;;;;;1999.90;999.90;;;7.70;99.90;;;;;;5049046;28;20437;-74
2023/12/20 00:12:35;;;;;;;1999.90;999.90;;;7.70;99.90;;;;;;5052931;28;20413;-74
2023/12/20 00:15:03;;;;;;;1999.90;999.90;;;7.70;99.90;;;;;;5052940;28;20959;-75
2023/12/20 00:17:31;;;;;;;1999.90;999.90;;;7.80;99.90;;;;;;5054035;28;20594;-75
2023/12/20 00:19:58;;;;;;;1999.90;999.90;;;7.80;99.90;;;;;;5051862;28;20467;-72
2023/12/20 00:22:25;;;;;;;1999.90;999.90;;;7.80;99.90;;;;;;5053414;28;20467;-72
2023/12/20 00:24:51;;;;;;;1999.90;999.90;;;7.80;99.90;;;;;;5052825;28;20444;-74
2023/12/20 00:27:19;;;;;;;1999.90;999.90;;;7.80;99.90;;;;;;5050285;28;20428;-75
2023/12/20 00:29:49;;;;;;;1999.90;999.90;;;7.80;99.90;;;;;;5052835;28;20910;-76
2023/12/20 00:32:16;;;;;;;1999.90;999.90;;;7.80;99.90;;;;;;5052677;28;20447;-75
2023/12/20 00:34:44;;;;;;;1999.90;999.90;;;7.80;99.90;;;;;;5051949;28;20453;-74
2023/12/20 00:37:10;;;;;;;1999.90;999.90;;;7.80;99.90;;;;;;5051849;28;20432;-74
2023/12/20 00:39:37;;;;;;;1999.90;999.90;;;7.80;99.90;;;;;;5052847;28;20527;-74
2023/12/20 00:42:04;;;;;;;1999.90;999.90;;;7.80;99.90;;;;;;5052552;28;20413;-74
2023/12/20 00:44:32;;;;;;;1999.90;999.90;;;7.90;99.90;;;;;;5052771;28;20417;-75
2023/12/20 00:46:59;;;;;;;1999.90;999.90;;;7.90;99.90;;;;;;5050134;28;20429;-74
2023/12/20 00:49:25;;;;;;;1999.90;999.90;;;7.90;99.90;;;;;;5050807;28;20495;-75
2023/12/20 00:51:52;;;;;;;1999.90;999.90;;;7.90;99.90;;;;;;5051637;28;20938;-75
2023/12/20 00:54:19;;;;;;;1999.90;999.90;;;7.90;99.90;;;;;;5050844;28;20445;-75
2023/12/20 00:56:46;;;;;;;1999.90;999.90;;;8.00;99.90;;;;;;5049174;28;20414;-75
2023/12/20 00:59:12;;;;;;;1999.90;999.90;;;7.90;99.90;;;;;;5052000;28;20417;-73
2023/12/20 01:01:41;;;;;;;1999.90;999.90;;;7.90;99.90;;;;;;5051135;28;20405;-74
2023/12/20 01:04:08;;;;;;;1999.90;999.90;;;7.90;99.90;;;;;;5052208;28;20508;-74
2023/12/20 01:06:35;;;;;;;1999.90;999.90;;;8.00;99.90;;;;;;5051834;28;20907;-73
2023/12/20 01:09:02;;;;;;;1999.90;999.90;;;7.90;99.90;;;;;;5041896;28;20419;-74
2023/12/20 01:11:29;;;;;;;1999.90;999.90;;;7.90;99.90;;;;;;5049863;28;20421;-74
2023/12/20 01:13:56;;;;;;;1999.90;999.90;;;7.80;99.90;;;;;;5049875;28;20467;-74
2023/12/20 01:16:22;;;;;;;1999.90;999.90;;;7.90;99.90;;;;;;5049730;28;20466;-74
2023/12/20 01:18:50;;;;;;;1999.90;999.90;;;7.90;99.90;;;;;;5047271;28;20421;-74
2023/12/20 01:21:17;;;;;;;1999.90;999.90;;;7.90;99.90;;;;;;5051093;28;20926;-74
2023/12/20 01:23:44;;;;;;;1999.90;999.90;;;7.80;99.90;;;;;;5051743;28;20420;-71
2023/12/20 01:26:11;;;;;;;1999.90;999.90;;;7.80;99.90;;;;;;5051185;28;20416;-72
2023/12/20 01:28:38;;;;;;;1999.90;999.90;;;7.90;99.90;;;;;;5049391;28;20936;-75
2023/12/20 01:31:04;;;;;;;1999.90;999.90;;;7.80;99.90;;;;;;5050391;28;20780;-75
2023/12/20 01:33:31;;;;;;;1999.90;999.90;;;7.90;99.90;;;;;;5051536;28;20413;-74
2023/12/20 01:35:59;;;;;;;1999.90;999.90;;;8.00;99.90;;;;;;5051137;28;20413;-75
2023/12/20 01:38:26;;;;;;;1999.90;999.90;;;8.00;99.90;;;;;;5050178;28;20429;-75
2023/12/20 01:40:52;;;;;;;1999.90;999.90;;;8.00;99.90;;;;;;5050557;28;20494;-74
2023/12/20 01:43:19;;;;;;;1999.90;999.90;;;7.90;99.90;;;;;;5051605;28;20435;-74
2023/12/20 01:45:46;;;;;;;1999.90;999.90;;;8.00;99.90;;;;;;5051520;28;20417;-74
2023/12/20 01:48:14;;;;;;;1999.90;999.90;;;8.00;99.90;;;;;;5047636;28;20486;-74
2023/12/20 01:50:41;;;;;;;1999.90;999.90;;;8.00;99.90;;;;;;5054540;28;20417;-76
2023/12/20 01:53:11;;;;;;;1999.90;999.90;;;8.00;99.90;;;;;;5054968;28;20921;-72
2023/12/20 01:55:41;;;;;;;1999.90;999.90;;;7.90;99.90;;;;;;5056010;28;20440;-74
2023/12/20 01:58:09;;;;;;;1999.90;999.90;;;8.00;99.90;;;;;;5053096;28;20915;-75
2023/12/20 02:00:37;;;;;;;1999.90;999.90;;;7.90;99.90;;;;;;5051684;28;20437;-74
2023/12/20 02:03:04;;;;;;;1999.90;999.90;;;7.90;99.90;;;;;;5054587;28;20413;-76
2023/12/20 02:05:32;;;;;;;1999.90;999.90;;;7.90;99.90;;;;;;5054076;28;20891;-74
2023/12/20 02:07:58;;;;;;;1999.90;999.90;;;8.00;99.90;;;;;;5050080;28;20434;-75
2023/12/20 02:10:26;;;;;;;1999.90;999.90;;;8.00;99.90;;;;;;5052713;28;20413;-76
2023/12/20 02:12:53;;;;;;;1999.90;999.90;;;8.00;99.90;;;;;;5052602;28;20444;-73
2023/12/20 02:15:20;;;;;;;1999.90;999.90;;;7.90;99.90;;;;;;5053254;28;20416;-74
2023/12/20 02:17:48;;;;;;;1999.90;999.90;;;8.00;99.90;;;;;;5051518;28;20433;-74
2023/12/20 02:20:15;;;;;;;1999.90;999.90;;;8.00;99.90;;;;;;5052025;28;20413;-74
2023/12/20 02:22:43;;;;;;;1999.90;999.90;;;8.00;99.90;;;;;;5053068;28;20485;-74
2023/12/20 02:25:10;;;;;;;1999.90;999.90;;;8.00;99.90;;;;;;5053729;28;20413;-74
2023/12/20 02:27:36;;;;;;;1999.90;999.90;;;8.00;99.90;;;;;;5054667;28;20431;-75
2023/12/20 02:30:04;;;;;;;1999.90;999.90;;;8.00;99.90;;;;;;5049659;28;20941;-76
2023/12/20 02:32:30;;;;;;;1999.90;999.90;;;8.00;99.90;;;;;;5052416;28;20462;-75
2023/12/20 02:34:58;;;;;;;1999.90;999.90;;;7.90;99.90;;;;;;5054497;28;20795;-75
2023/12/20 02:37:25;;;;;;;1999.90;999.90;;;8.00;99.90;;;;;;5054442;28;20409;-72
2023/12/20 02:39:53;;;;;;;1999.90;999.90;;;8.10;99.90;;;;;;5051191;28;20485;-76
2023/12/20 02:42:20;;;;;;;1999.90;999.90;;;7.90;99.90;;;;;;5054978;28;20459;-76
2023/12/20 02:44:47;;;;;;;1999.90;999.90;;;7.80;99.90;;;;;;5050593;28;20491;-75
2023/12/20 02:47:13;;;;;;;1999.90;999.90;;;7.80;99.90;;;;;;5052001;28;20495;-76
2023/12/20 02:49:40;;;;;;;1999.90;999.90;;;7.60;99.90;;;;;;5055308;28;20413;-73
2023/12/20 02:52:07;;;;;;;1999.90;999.90;;;7.50;99.90;;;;;;5053896;28;20737;-74
2023/12/20 02:54:33;;;;;;;1999.90;999.90;;;7.40;99.90;;;;;;5055742;28;20413;-76
2023/12/20 02:57:01;;;;;;;1999.90;999.90;;;7.40;99.90;;;;;;5055815;28;20414;-75
2023/12/20 02:59:28;;;;;;;1999.90;999.90;;;7.30;99.90;;;;;;5055233;28;20471;-74
2023/12/20 03:01:55;;;;;;;1999.90;999.90;;;7.30;99.90;;;;;;5053919;28;20434;-73
2023/12/20 03:04:21;;;;;;;1999.90;999.90;;;7.30;99.90;;;;;;5055907;28;20836;-72
2023/12/20 03:06:48;;;;;;;1999.90;999.90;;;7.20;99.90;;;;;;5055421;28;20420;-75
2023/12/20 03:09:15;;;;;;;1999.90;999.90;;;7.20;99.90;;;;;;5055424;28;20502;-76
2023/12/20 03:11:41;;;;;;;1999.90;999.90;;;7.20;99.90;;;;;;5051357;28;20448;-74
2023/12/20 03:14:09;;;;;;;1999.90;999.90;;;7.20;99.90;;;;;;5053673;28;20444;-75
2023/12/20 03:16:36;;;;;;;1999.90;999.90;;;7.30;99.90;;;;;;5053193;28;20527;-74
2023/12/20 03:19:03;;;;;;;1999.90;999.90;;;7.30;99.90;;;;;;5053908;28;20409;-75
2023/12/20 03:21:30;;;;;;;1999.90;999.90;;;7.20;99.90;;;;;;5052942;28;20440;-75
2023/12/20 03:23:56;;;;;;;1999.90;999.90;;;7.20;99.90;;;;;;5053984;28;20830;-71
2023/12/20 03:26:23;;;;;;;1999.90;999.90;;;7.30;99.90;;;;;;5053507;28;20413;-73
2023/12/20 03:28:52;;;;;;;1999.90;999.90;;;7.30;99.90;;;;;;5053369;28;20512;-74
2023/12/20 03:31:20;;;;;;;1999.90;999.90;;;7.30;99.90;;;;;;5052496;28;20918;-74
2023/12/20 03:33:47;;;;;;;1999.90;999.90;;;7.30;99.90;;;;;;5053049;28;20417;-72
2023/12/20 03:36:14;;;;;;;1999.90;999.90;;;7.30;99.90;;;;;;5045152;28;20456;-76
2023/12/20 03:38:41;;;;;;;1999.90;999.90;;;7.30;99.90;;;;;;5053053;28;20409;-74
2023/12/20 03:41:08;;;;;;;1999.90;999.90;;;7.30;99.90;;;;;;5051768;28;20433;-74
2023/12/20 03:43:35;;;;;;;1999.90;999.90;;;7.30;99.90;;;;;;5051067;28;20919;-77
2023/12/20 03:46:03;;;;;;;1999.90;999.90;;;7.30;99.90;;;;;;5048346;28;20945;-74
2023/12/20 03:48:31;;;;;;;1999.90;999.90;;;7.40;99.90;;;;;;5047917;28;20527;-74
2023/12/20 03:50:58;;;;;;;1999.90;999.90;;;7.60;99.90;;;;;;5051627;28;20437;-74
2023/12/20 03:53:25;;;;;;;1999.90;999.90;;;7.20;99.90;;;;;;5053325;28;20444;-74
2023/12/20 03:55:52;;;;;;;1999.90;999.90;;;7.30;99.90;;;;;;5053895;28;20423;-74
2023/12/20 03:58:18;;;;;;;1999.90;999.90;;;7.30;99.90;;;;;;5051484;28;20428;-73
2023/12/20 04:00:45;;;;;;;1999.90;999.90;;;7.30;99.90;;;;;;5052721;28;20826;-75
2023/12/20 04:03:13;;;;;;;1999.90;999.90;;;7.20;99.90;;;;;;5053070;28;20851;-76
2023/12/20 04:05:41;;;;;;;1999.90;999.90;;;7.40;99.90;;;;;;5052756;28;20418;-74
2023/12/20 04:08:08;;;;;;;1999.90;999.90;;;7.30;99.90;;;;;;5050433;28;20541;-76
2023/12/20 04:10:35;;;;;;;1999.90;999.90;;;7.30;99.90;;;;;;5050927;28;20424;-76
2023/12/20 04:13:02;;;;;;;1999.90;999.90;;;7.30;99.90;;;;;;5051635;28;20439;-75
2023/12/20 04:15:28;;;;;;;1999.90;999.90;;;7.30;99.90;;;;;;5051530;28;20420;-76
2023/12/20 04:17:55;;;;;;;1999.90;999.90;;;7.40;99.90;;;;;;5049576;28;20598;-73
2023/12/20 04:20:21;;;;;;;1999.90;999.90;;;7.40;99.90;;;;;;5052164;28;20961;-73
2023/12/20 04:22:49;;;;;;;1999.90;999.90;;;7.30;99.90;;;;;;5052263;28;20981;-75
2023/12/20 04:25:22;;;;;;;1999.90;999.90;;;7.20;99.90;;;;;;5052625;28;20405;-74
2023/12/20 04:27:48;;;;;;;1999.90;999.90;;;7.20;99.90;;;;;;5048073;28;20436;-75
2023/12/20 04:30:15;;;;;;;1999.90;999.90;;;7.10;99.90;;;;;;5052157;28;20417;-75
2023/12/20 04:32:42;;;;;;;1999.90;999.90;;;7.00;99.90;;;;;;5052166;28;20471;-73
2023/12/20 04:35:09;;;;;;;1999.90;999.90;;;6.90;99.90;;;;;;5052409;28;20495;-70
2023/12/20 04:37:36;;;;;;;1999.90;999.90;;;6.80;99.90;;;;;;5047998;28;20502;-75
2023/12/20 04:40:05;;;;;;;1999.90;999.90;;;6.70;99.90;;;;;;5051703;28;20455;-74
2023/12/20 04:42:32;;;;;;;1999.90;999.90;;;6.70;99.90;;;;;;5052085;28;20436;-72
2023/12/20 04:44:58;;;;;;;1999.90;999.90;;;6.70;99.90;;;;;;5052210;28;20399;-76
2023/12/20 04:47:25;;;;;;;1999.90;999.90;;;6.70;99.90;;;;;;5051064;28;20434;-74
2023/12/20 04:49:52;;;;;;;1999.90;999.90;;;6.70;99.90;;;;;;5051268;28;20436;-75
2023/12/20 04:52:18;;;;;;;1999.90;999.90;;;6.70;99.90;;;;;;5051589;28;20444;-76
2023/12/20 04:54:45;;;;;;;1999.90;999.90;;;6.60;99.90;;;;;;5052619;28;20827;-73
2023/12/20 04:57:13;;;;;;;1999.90;999.90;;;6.60;99.90;;;;;;5051404;28;20963;-72
2023/12/20 04:59:41;;;;;;;1999.90;999.90;;;6.60;99.90;;;;;;5051528;28;20429;-74
2023/12/20 05:02:07;;;;;;;1999.90;999.90;;;6.50;99.90;;;;;;5052370;28;20421;-75
2023/12/20 05:04:34;;;;;;;1999.90;999.90;;;6.50;99.90;;;;;;5052730;28;20409;-72
2023/12/20 05:07:01;;;;;;;1999.90;999.90;;;6.50;99.90;;;;;;5052197;28;20917;-75
2023/12/20 05:09:27;;;;;;;1999.90;999.90;;;6.50;99.90;;;;;;5050592;28;20430;-74
2023/12/20 05:11:54;;;;;;;1999.90;999.90;;;6.50;99.90;;;;;;5052152;28;20413;-73
2023/12/20 05:14:22;;;;;;;1999.90;999.90;;;6.60;99.90;;;;;;5051217;28;20783;-76
2023/12/20 05:16:49;;;;;;;1999.90;999.90;;;6.70;99.90;;;;;;5052297;28;20810;-76
2023/12/20 05:19:15;;;;;;;1999.90;999.90;;;6.80;99.90;;;;;;5050505;28;20487;-76
2023/12/20 05:21:42;;;;;;;1999.90;999.90;;;6.90;99.90;;;;;;5051352;28;20409;-76
2023/12/20 05:24:09;;;;;;;1999.90;999.90;;;6.80;99.90;;;;;;5051324;28;20852;-74
2023/12/20 05:26:36;;;;;;;1999.90;999.90;;;6.80;99.90;;;;;;5051500;28;20422;-72
2023/12/20 05:29:02;;;;;;;1999.90;999.90;;;6.80;99.90;;;;;;5048000;28;20429;-77
2023/12/20 05:31:32;;;;;;;1999.90;999.90;;;6.80;99.90;;;;;;5052090;28;20911;-75
2023/12/20 05:33:59;;;;;;;1999.90;999.90;;;6.70;99.90;;;;;;5051814;28;20414;-76
2023/12/20 05:36:26;;;;;;;1999.90;999.90;;;6.70;99.90;;;;;;5050489;28;20977;-74
2023/12/20 05:38:53;;;;;;;1999.90;999.90;;;6.80;99.90;;;;;;5047276;28;20467;-74
2023/12/20 05:41:21;;;;;;;1999.90;999.90;;;6.70;99.90;;;;;;5049853;28;20432;-74
2023/12/20 05:43:48;;;;;;;1999.90;999.90;;;6.70;99.90;;;;;;5050845;28;20413;-75
2023/12/20 05:46:14;;;;;;;1999.90;999.90;;;6.70;99.90;;;;;;5051398;28;20413;-73
2023/12/20 05:48:42;;;;;;;1999.90;999.90;;;6.70;99.90;;;;;;5051668;28;21041;-76
2023/12/20 05:51:12;;;;;;;1999.90;999.90;;;6.70;99.90;;;;;;5051406;28;20421;-76
2023/12/20 05:53:39;;;;;;;1999.90;999.90;;;6.70;99.90;;;;;;5051507;28;20466;-75
2023/12/20 05:56:06;;;;;;;1999.90;999.90;;;6.70;99.90;;;;;;5052254;28;20425;-73
2023/12/20 05:58:34;;;;;;;1999.90;999.90;;;6.70;99.90;;;;;;5049107;28;20446;-74
2023/12/20 06:01:01;;;;;;;1999.90;999.90;;;6.80;99.90;;;;;;5051459;28;20421;-76
2023/12/20 06:03:27;;;;;;;1999.90;999.90;;;6.80;99.90;;;;;;5051720;28;20416;-76
2023/12/20 06:05:55;;;;;;;1999.90;999.90;;;6.80;99.90;;;;;;5051924;28;20421;-75
2023/12/20 06:08:22;;;;;;;1999.90;999.90;;;6.70;99.90;;;;;;5043713;28;20957;-72
2023/12/20 06:10:49;;;;;;;1999.90;999.90;;;6.80;99.90;;;;;;5051916;28;20414;-73
2023/12/20 06:13:17;;;;;;;1999.90;999.90;;;6.90;99.90;;;;;;5052024;28;20484;-74
2023/12/20 06:15:44;;;;;;;1999.90;999.90;;;6.90;99.90;;;;;;5051297;28;20512;-73
2023/12/20 06:18:10;;;;;;;1999.90;999.90;;;7.40;99.90;;;;;;5049672;28;20838;-75
2023/12/20 06:20:37;;;;;;;1999.90;999.90;;;6.90;99.90;;;;;;5051030;28;20975;-76
2023/12/20 06:23:05;;;;;;;1999.90;999.90;;;6.80;99.90;;;;;;5049629;28;20417;-74
2023/12/20 06:25:32;;;;;;;1999.90;999.90;;;6.80;99.90;;;;;;5051404;28;20417;-75
2023/12/20 06:27:58;;;;;;;1999.90;999.90;;;6.90;99.90;;;;;;5048017;28;20973;-73
2023/12/20 06:30:27;;;;;;;1999.90;999.90;;;6.90;99.90;;;;;;5050859;28;20425;-77
2023/12/20 06:32:54;;;;;;;1999.90;999.90;;;7.00;99.90;;;;;;5054004;28;20421;-74
2023/12/20 06:35:21;;;;;;;1999.90;999.90;;;7.00;99.90;;;;;;5057028;28;20417;-77
2023/12/20 06:37:47;;;;;;;1999.90;999.90;;;7.00;99.90;;;;;;5054717;28;20461;-76
2023/12/20 06:40:16;;;;;;;1999.90;999.90;;;7.10;99.90;;;;;;5052279;28;20429;-75
2023/12/20 06:42:42;;;;;;;1999.90;999.90;;;7.10;99.90;;;;;;5054935;28;20439;-74
2023/12/20 06:45:10;;;;;;;1999.90;999.90;;;7.10;99.90;;;;;;5054314;28;20548;-76
2023/12/20 06:47:37;;;;;;;1999.90;999.90;;;7.20;99.90;;;;;;5054672;28;20463;-76
2023/12/20 06:50:04;;;;;;;1999.90;999.90;;;7.10;99.90;;;;;;5054564;28;20429;-74
2023/12/20 06:52:31;;;;;;;1999.90;999.90;;;7.10;99.90;;;;;;5056345;28;20445;-75
2023/12/20 06:54:57;;;;;;;1999.90;999.90;;;7.10;99.90;;;;;;5054113;28;20417;-76
2023/12/20 06:57:26;;;;;;;1999.90;999.90;;;7.10;99.90;;;;;;5052842;28;20471;-75
2023/12/20 06:59:53;;;;;;;1999.90;999.90;;;7.00;99.90;;;;;;5050454;28;20461;-70
2023/12/20 07:02:20;;;;;;;1999.90;999.90;;;7.00;99.90;;;;;;5053216;28;20783;-74
2023/12/20 07:04:47;;;;;;;1999.90;999.90;;;7.00;99.90;;;;;;5055638;28;20421;-76
2023/12/20 07:07:14;;;;;;;1999.90;999.90;;;7.00;99.90;;;;;;5055229;28;20818;-74
2023/12/20 07:09:42;;;;;;;1999.90;999.90;;;7.00;99.90;;;;;;5053683;28;20426;-76
2023/12/20 07:12:09;;;;;;;1999.90;999.90;;;6.90;99.90;;;;;;5054064;28;20424;-73
2023/12/20 07:14:37;;;;;;;1999.90;999.90;;;6.90;99.90;;;;;;5054179;28;20769;-74
2023/12/20 07:17:04;;;;;;;1999.90;999.90;;;6.80;99.90;;;;;;5050402;28;20479;-76
2023/12/20 07:19:30;;;;;;;1999.90;999.90;;;6.70;99.90;;;;;;5054051;28;20933;-76
2023/12/20 07:21:57;;;;;;;1999.90;999.90;;;6.60;99.90;;;;;;5046671;28;20437;-73
2023/12/20 07:24:24;;;;;;;1999.90;999.90;;;6.80;99.90;;;;;;5054476;28;20467;-75
2023/12/20 07:26:51;;;;;;;1999.90;999.90;;;6.70;99.90;;;;;;5053884;28;20563;-75
2023/12/20 07:29:18;;;;;;;1999.90;999.90;;;6.60;99.90;;;;;;5053538;28;20475;-75
2023/12/20 07:31:46;;;;;;;1999.90;999.90;;;6.70;99.90;;;;;;5049215;28;20483;-73
2023/12/20 07:34:13;;;;;;;1999.90;999.90;;;6.70;99.90;;;;;;5047413;28;20475;-74
2023/12/20 07:36:39;;;;;;;1999.90;999.90;;;6.70;99.90;;;;;;5051509;28;20420;-75
2023/12/20 07:39:06;;;;;;;1999.90;999.90;;;6.70;99.90;;;;;;5052629;28;20463;-75
2023/12/20 07:41:33;;;;;;;1999.90;999.90;;;6.70;99.90;;;;;;5053372;28;20483;-74
2023/12/20 07:43:59;;;;;;;1999.90;999.90;;;6.70;99.90;;;;;;5050898;28;20433;-72
2023/12/20 07:46:26;;;;;;;1999.90;999.90;;;6.70;99.90;;;;;;5053363;28;20436;-75
2023/12/20 07:48:54;;;;;;;1999.90;999.90;;;6.80;99.90;;;;;;5053325;28;20428;-74
2023/12/20 07:51:21;;;;;;;1999.90;999.90;;;6.70;99.90;;;;;;5053156;28;20425;-75
2023/12/20 07:53:48;;;;;;;1999.90;999.90;;;6.70;99.90;;;;;;5047087;28;20538;-74
2023/12/20 07:56:16;;;;;;;1999.90;999.90;;;6.90;99.90;;;;;;5047742;28;20490;-74
2023/12/20 07:58:43;;;;;;;1999.90;999.90;;;7.00;99.90;;;;;;5053086;28;20418;-75
2023/12/20 08:01:09;;;;;;;1999.90;999.90;;;7.00;99.90;;;;;;5053029;28;20418;-76
2023/12/20 08:03:36;;;;;;;1999.90;999.90;;;7.10;99.90;;;;;;5051401;28;20429;-75
2023/12/20 08:06:05;;;;;;;1999.90;999.90;;;7.10;99.90;;;;;;5052736;28;20417;-76
2023/12/20 08:08:31;;;;;;;1999.90;999.90;;;7.10;99.90;;;;;;5053746;28;20413;-74
2023/12/20 08:10:59;;;;;;;1999.90;999.90;;;7.00;99.90;;;;;;5052707;28;20433;-75
2023/12/20 08:13:27;;;;;;;1999.90;999.90;;;6.90;99.90;;;;;;5049965;28;20429;-74
2023/12/20 08:15:55;;;;;;;1999.90;999.90;;;6.80;99.90;;;;;;5047248;28;20449;-77
2023/12/20 08:18:22;;;;;;;1999.90;999.90;;;6.80;99.90;;;;;;5051036;28;20916;-75
2023/12/20 08:20:49;;;;;;;1999.90;999.90;;;6.90;99.90;;;;;;5048019;28;20481;-77
2023/12/20 08:23:16;;;;;;;1999.90;999.90;;;6.90;99.90;;;;;;5052149;28;20769;-76
2023/12/20 08:25:43;;;;;;;1999.90;999.90;;;6.80;99.90;;;;;;5048074;28;20491;-75
2023/12/20 08:28:09;;;;;;;1999.90;999.90;;;6.80;99.90;;;;;;5046061;28;20437;-75
2023/12/20 08:30:36;;;;;;;1999.90;999.90;;;6.90;99.90;;;;;;5037606;28;20474;-74
2023/12/20 08:33:03;;;;;;;1999.90;999.90;;;6.90;99.90;;;;;;5049978;28;20443;-76
2023/12/20 08:35:30;;;;;;;1999.90;999.90;;;7.00;99.90;;;;;;5047583;28;20442;-76
2023/12/20 08:37:57;;;;;;;1999.90;999.90;;;7.10;99.90;;;;;;5049799;28;20420;-74
2023/12/20 08:40:25;;;;;;;1999.90;999.90;;;7.20;99.90;;;;;;5052311;28;20406;-75
2023/12/20 08:42:52;;;;;;;1999.90;999.90;;;7.30;99.90;;;;;;5052535;28;20413;-75
2023/12/20 08:45:19;;;;;;;1999.90;999.90;;;7.40;99.90;;;;;;5051960;28;20803;-74
2023/12/20 08:47:46;;;;;;;1999.90;999.90;;;7.50;99.90;;;;;;5051958;28;20500;-75
2023/12/20 08:50:13;;;;;;;1999.90;999.90;;;7.60;99.90;;;;;;5051561;28;20426;-72
2023/12/20 08:52:39;;;;;;;1999.90;999.90;;;7.70;99.90;;;;;;5052262;28;20500;-75
2023/12/20 08:55:07;;;;;;;1999.90;999.90;;;7.70;99.90;;;;;;5050570;28;20424;-74
2023/12/20 08:57:35;;;;;;;1999.90;999.90;;;7.70;99.90;;;;;;5039966;28;20955;-75
2023/12/20 09:00:03;;;;;;;1999.90;999.90;;;7.70;99.90;;;;;;5048867;28;20425;-73
2023/12/20 09:02:29;;;;;;;1999.90;999.90;;;7.80;99.90;;;;;;5052849;28;20413;-77
2023/12/20 09:04:56;;;;;;;1999.90;999.90;;;7.80;99.90;;;;;;5052602;28;20463;-76
2023/12/20 09:07:23;;;;;;;1999.90;999.90;;;7.80;99.90;;;;;;5052268;28;20420;-75
2023/12/20 09:09:50;;;;;;;1999.90;999.90;;;8.00;99.90;;;;;;5044322;28;20511;-75
2023/12/20 09:12:21;;;;;;;1999.90;999.90;;;8.10;99.90;;;;;;5052281;28;20507;-73
2023/12/20 09:14:51;;;;;;;1999.90;999.90;;;8.10;99.90;;;;;;5052443;28;20432;-75
2023/12/20 09:17:18;;;;;;;1999.90;999.90;;;8.10;99.90;;;;;;5051641;28;20409;-76
2023/12/20 09:19:45;;;;;;;1999.90;999.90;;;8.20;99.90;;;;;;5051549;28;20425;-75
2023/12/20 09:22:13;;;;;;;1999.90;999.90;;;8.30;99.90;;;;;;5051381;28;20500;-76
2023/12/20 09:24:39;;;;;;;1999.90;999.90;;;8.30;99.90;;;;;;5052122;28;20470;-75
2023/12/20 09:27:06;;;;;;;1999.90;999.90;;;8.50;99.90;;;;;;5050034;28;20930;-76
2023/12/20 09:29:33;;;;;;;1999.90;999.90;;;8.40;99.90;;;;;;5050269;28;20516;-72
2023/12/20 09:32:01;;;;;;;1999.90;999.90;;;8.40;99.90;;;;;;5050529;28;20923;-76
2023/12/20 09:34:29;;;;;;;1999.90;999.90;;;8.40;99.90;;;;;;5051646;28;20486;-77
2023/12/20 09:36:56;;;;;;;1999.90;999.90;;;8.40;99.90;;;;;;5051054;28;20417;-75
2023/12/20 09:39:23;;;;;;;1999.90;999.90;;;8.40;99.90;;;;;;5051882;28;20883;-72
2023/12/20 09:42:00;;;;;;;1999.90;999.90;;;8.40;99.90;;;;;;5052081;28;20418;-74
2023/12/20 09:44:27;;;;;;;1999.90;999.90;;;8.40;99.90;;;;;;5052532;28;20413;-76
2023/12/20 09:46:56;;;;;;;1999.90;999.90;;;8.50;99.90;;;;;;5050010;28;20425;-76
2023/12/20 09:49:24;;;;;;;1999.90;999.90;;;8.70;99.90;;;;;;5051468;28;20413;-75
2023/12/20 09:51:52;;;;;;;1999.90;999.90;;;8.80;99.90;;;;;;5051743;28;20421;-75
2023/12/20 09:54:19;;;;;;;1999.90;999.90;;;8.80;99.90;;;;;;5051463;28;20444;-76
2023/12/20 09:56:46;;;;;;;1999.90;999.90;;;9.10;99.90;;;;;;5051802;28;20413;-75
2023/12/20 09:59:13;;;;;;;1999.90;999.90;;;9.10;99.90;;;;;;5046592;28;20433;-74
2023/12/20 10:01:41;;;;;;;1999.90;999.90;;;8.80;99.90;;;;;;5047276;28;20830;-74
2023/12/20 10:04:12;;;;;;;1999.90;999.90;;;8.70;99.90;;;;;;5050210;28;20433;-74
2023/12/20 10:06:40;;;;;;;1999.90;999.90;;;8.60;99.90;;;;;;5043875;28;20438;-77
2023/12/20 10:09:07;;;;;;;1999.90;999.90;;;8.40;99.90;;;;;;5053990;28;20470;-75
2023/12/20 10:11:37;;;;;;;1999.90;999.90;;;8.40;99.90;;;;;;5055329;28;20800;-75
2023/12/20 10:14:04;;;;;;;1999.90;999.90;;;8.30;99.90;;;;;;5054833;28;20411;-76
2023/12/20 10:16:32;;;;;;;1999.90;999.90;;;8.30;99.90;;;;;;5054537;28;20436;-74
2023/12/20 10:18:59;;;;;;;1999.90;999.90;;;8.40;99.90;;;;;;5054528;28;20422;-76
2023/12/20 10:21:27;;;;;;;1999.90;999.90;;;8.30;99.90;;;;;;5048961;28;20460;-75
2023/12/20 10:23:56;;;;;;;1999.90;999.90;;;8.30;99.90;;;;;;5054351;28;20417;-76
2023/12/20 10:26:23;;;;;;;1999.90;999.90;;;8.20;99.90;;;;;;5055392;28;20409;-74
2023/12/20 10:28:52;;;;;;;1999.90;999.90;;;8.30;99.90;;;;;;5055009;28;20421;-75
2023/12/20 10:31:30;;;;;;;1999.90;999.90;;;8.40;99.90;;;;;;5053236;28;20518;-76
2023/12/20 10:33:58;;;;;;;1999.90;999.90;;;8.60;99.90;;;;;;5054124;28;20417;-74
2023/12/20 10:36:26;;;;;;;1999.90;999.90;;;8.50;99.90;;;;;;5050615;28;20520;-76
2023/12/20 10:38:54;;;;;;;1999.90;999.90;;;8.50;99.90;;;;;;5047410;28;20441;-72
2023/12/20 10:41:27;;;;;;;1999.90;999.90;;;8.30;99.90;;;;;;5054412;28;20444;-77
2023/12/20 10:43:55;;;;;;;1999.90;999.90;;;8.20;99.90;;;;;;5052003;28;20414;-74
2023/12/20 10:46:22;;;;;;;1999.90;999.90;;;8.20;99.90;;;;;;5054589;28;20821;-74
2023/12/20 10:48:52;;;;;;;1999.90;999.90;;;8.20;99.90;;;;;;5048808;28;20524;-73
2023/12/20 10:51:20;;;;;;;1999.90;999.90;;;8.30;99.90;;;;;;5053657;28;20512;-73
2023/12/20 10:53:48;;;;;;;1999.90;999.90;;;8.40;99.90;;;;;;5055734;28;20417;-75
2023/12/20 10:56:17;;;;;;;1999.90;999.90;;;8.40;99.90;;;;;;5051540;28;20504;-74
2023/12/20 10:58:47;;;;;;;1999.90;999.90;;;8.30;99.90;;;;;;5048998;28;20483;-75
2023/12/20 11:01:15;;;;;;;1999.90;999.90;;;8.20;99.90;;;;;;5054641;28;20432;-75
2023/12/20 11:03:46;;;;;;;1999.90;999.90;;;8.20;99.90;;;;;;5050004;28;20455;-75
2023/12/20 11:06:27;;;;;;;1999.90;999.90;;;8.30;99.90;;;;;;5054963;28;20991;-76
2023/12/20 11:09:09;;;;;;;1999.90;999.90;;;8.20;99.90;;;;;;5054028;28;20508;-72
2023/12/20 11:11:40;;;;;;;1999.90;999.90;;;8.20;99.90;;;;;;5051482;28;20453;-77
2023/12/20 11:14:15;;;;;;;1999.90;999.90;;;8.30;99.90;;;;;;5054012;28;20483;-75
2023/12/20 11:16:42;;;;;;;1999.90;999.90;;;8.40;99.90;;;;;;5050659;28;20937;-77
2023/12/20 11:19:09;;;;;;;1999.90;999.90;;;8.60;99.90;;;;;;5045221;28;20923;-76
2023/12/20 11:21:35;;;;;;;1999.90;999.90;;;8.80;99.90;;;;;;5052181;28;20409;-76
2023/12/20 11:24:03;;;;;;;1999.90;999.90;;;8.90;99.90;;;;;;5059844;28;20487;-76
2023/12/20 11:26:31;;;;;;;1999.90;999.90;;;8.90;99.90;;;;;;5051994;28;20433;-76
2023/12/20 11:29:33;;;;;;;1999.90;999.90;;;8.90;99.90;;;;;;5053752;28;20934;-75
2023/12/20 11:32:01;;;;;;;1999.90;999.90;;;9.00;99.90;;;;;;5053618;28;20875;-75
2023/12/20 11:34:29;;;;;;;1999.90;999.90;;;8.90;99.90;;;;;;5053722;28;20420;-75
2023/12/20 11:37:00;;;;;;;1999.90;999.90;;;8.90;99.90;;;;;;5052872;28;20433;-75
2023/12/20 11:39:28;;;;;;;1999.90;999.90;;;9.00;99.90;;;;;;5054131;28;20413;-76
2023/12/20 11:41:57;;;;;;;1999.90;999.90;;;8.90;99.90;;;;;;5053752;28;20399;-74
2023/12/20 11:44:25;;;;;;;1999.90;999.90;;;9.00;99.90;;;;;;5053308;28;20497;-72
2023/12/20 11:46:54;;;;;;;1999.90;999.90;;;9.00;99.90;;;;;;5052893;28;20433;-75
2023/12/20 11:49:24;;;;;;;1999.90;999.90;;;8.90;99.90;;;;;;5053488;28;20497;-75
2023/12/20 11:51:51;;;;;;;1999.90;999.90;;;8.80;99.90;;;;;;5053631;28;20425;-74
2023/12/20 11:54:19;;;;;;;1999.90;999.90;;;8.90;99.90;;;;;;5053854;28;20496;-77
2023/12/20 11:56:46;;;;;;;1999.90;999.90;;;8.80;99.90;;;;;;5051554;28;20429;-76
2023/12/20 11:59:13;;;;;;;1999.90;999.90;;;8.70;99.90;;;;;;5055286;28;20420;-75
2023/12/20 12:01:39;;;;;;;1999.90;999.90;;;8.70;99.90;;;;;;5053551;28;20484;-74
2023/12/20 12:04:08;;;;;;;1999.90;999.90;;;8.70;99.90;;;;;;5050256;28;20474;-74
2023/12/20 12:06:35;;;;;;;1999.90;999.90;;;8.60;99.90;;;;;;5039652;28;20457;-75
2023/12/20 12:09:03;;;;;;;1999.90;999.90;;;8.70;99.90;;;;;;5053064;28;20432;-75